sensor_id;sensor_type;location;lat;lon;timestamp;pressure;altitude;pressure_sealevel;temperature;humidity
13124;BME280;6627;50.920;12.050;2023-04-28T00:01:52;98541.81;;;14.81;44.13
13124;BME280;6627;50.920;12.050;2023-04-28T00:04:19;98463.94;;;14.09;45.55
13124;BME280;6627;50.920;12.050;2023-04-28T00:06:46;98537.34;;;14.56;45.62
13124;BME280;6627;50.920;12.050;2023-04-28T00:09:14;98596.34;;;15.35;43.77
13124;BME280;6627;50.920;12.050;2023-04-28T00:11:43;98433.91;;;14.38;44.06
13124;BME280;6627;50.920;12.050;2023-04-28T00:14:11;98392.16;;;13.63;46.38
13124;BME280;6627;50.920;12.050;2023-04-28T00:16:39;98419.66;;;13.70;46.88
13124;BME280;6627;50.920;12.050;2023-04-28T00:19:06;98438.09;;;14.15;45.48
13124;BME280;6627;50.920;12.050;2023-04-28T00:21:33;98492.97;;;14.47;45.45
13124;BME280;6627;50.920;12.050;2023-04-28T00:24:00;98360.75;;;13.45;46.81
13124;BME280;6627;50.920;12.050;2023-04-28T00:26:27;98456.22;;;14.11;46.68
13124;BME280;6627;50.920;12.050;2023-04-28T00:28:55;98429.50;;;13.83;47.00
13124;BME280;6627;50.920;12.050;2023-04-28T00:31:22;98393.78;;;13.64;47.42
13124;BME280;6627;50.920;12.050;2023-04-28T00:33:50;98343.72;;;13.18;47.59
13124;BME280;6627;50.920;12.050;2023-04-28T00:36:17;98408.47;;;13.63;47.51
13124;BME280;6627;50.920;12.050;2023-04-28T00:38:46;98445.19;;;13.86;47.19
13124;BME280;6627;50.920;12.050;2023-04-28T00:41:13;98395.91;;;13.50;47.63
13124;BME280;6627;50.920;12.050;2023-04-28T00:43:45;98314.47;;;12.85;48.81
13124;BME280;6627;50.920;12.050;2023-04-28T00:46:20;98347.97;;;13.07;48.30
13124;BME280;6627;50.920;12.050;2023-04-28T00:48:49;98410.91;;;13.26;48.87
13124;BME280;6627;50.920;12.050;2023-04-28T00:51:17;98406.56;;;13.34;47.50
13124;BME280;6627;50.920;12.050;2023-04-28T00:53:45;98515.19;;;14.07;47.04
13124;BME280;6627;50.920;12.050;2023-04-28T00:56:12;98471.06;;;13.63;47.47
13124;BME280;6627;50.920;12.050;2023-04-28T00:58:40;98542.78;;;14.35;46.85
13124;BME280;6627;50.920;12.050;2023-04-28T01:01:09;98620.09;;;15.02;45.19
13124;BME280;6627;50.920;12.050;2023-04-28T01:03:39;98658.41;;;15.26;44.77
13124;BME280;6627;50.920;12.050;2023-04-28T01:06:08;98596.41;;;14.94;44.89
13124;BME280;6627;50.920;12.050;2023-04-28T01:08:37;98644.03;;;15.17;45.33
13124;BME280;6627;50.920;12.050;2023-04-28T01:11:05;98459.31;;;14.30;45.23
13124;BME280;6627;50.920;12.050;2023-04-28T01:13:32;98557.72;;;14.79;45.76
13124;BME280;6627;50.920;12.050;2023-04-28T01:15:59;98544.66;;;14.64;46.01
13124;BME280;6627;50.920;12.050;2023-04-28T01:18:27;98417.41;;;13.72;46.87
13124;BME280;6627;50.920;12.050;2023-04-28T01:21:38;98447.63;;;14.30;45.77
13124;BME280;6627;50.920;12.050;2023-04-28T01:24:07;98576.41;;;15.23;45.22
13124;BME280;6627;50.920;12.050;2023-04-28T01:26:34;98631.31;;;15.75;43.95
13124;BME280;6627;50.920;12.050;2023-04-28T01:29:01;98548.53;;;15.50;42.90
13124;BME280;6627;50.920;12.050;2023-04-28T01:31:30;98629.84;;;15.78;43.55
13124;BME280;6627;50.920;12.050;2023-04-28T01:33:58;98612.78;;;15.93;42.47
13124;BME280;6627;50.920;12.050;2023-04-28T01:36:25;98586.28;;;15.81;42.67
13124;BME280;6627;50.920;12.050;2023-04-28T01:38:53;98362.06;;;14.10;46.05
13124;BME280;6627;50.920;12.050;2023-04-28T01:41:22;98491.84;;;14.89;45.64
13124;BME280;6627;50.920;12.050;2023-04-28T01:43:49;98479.81;;;14.91;45.19
13124;BME280;6627;50.920;12.050;2023-04-28T01:46:17;98440.88;;;14.69;45.32
13124;BME280;6627;50.920;12.050;2023-04-28T01:48:44;98580.34;;;15.67;44.34
13124;BME280;6627;50.920;12.050;2023-04-28T01:51:12;98522.25;;;15.58;42.96
13124;BME280;6627;50.920;12.050;2023-04-28T01:53:39;98524.13;;;15.66;42.50
13124;BME280;6627;50.920;12.050;2023-04-28T01:56:06;98605.88;;;16.08;42.49
13124;BME280;6627;50.920;12.050;2023-04-28T01:58:35;98606.47;;;16.38;41.50
13124;BME280;6627;50.920;12.050;2023-04-28T02:01:02;98583.47;;;16.39;41.00
13124;BME280;6627;50.920;12.050;2023-04-28T02:03:30;98545.56;;;16.25;41.06
13124;BME280;6627;50.920;12.050;2023-04-28T02:05:57;98538.81;;;16.35;40.74
13124;BME280;6627;50.920;12.050;2023-04-28T02:08:24;98540.53;;;16.39;40.72
13124;BME280;6627;50.920;12.050;2023-04-28T02:10:51;98512.22;;;16.07;41.96
13124;BME280;6627;50.920;12.050;2023-04-28T02:13:18;98425.94;;;15.45;43.03
13124;BME280;6627;50.920;12.050;2023-04-28T02:15:47;98449.59;;;15.53;43.55
13124;BME280;6627;50.920;12.050;2023-04-28T02:18:15;98542.13;;;16.28;42.35
13124;BME280;6627;50.920;12.050;2023-04-28T02:20:42;98538.03;;;16.34;42.00
13124;BME280;6627;50.920;12.050;2023-04-28T02:23:09;98515.50;;;16.25;41.93
13124;BME280;6627;50.920;12.050;2023-04-28T02:25:36;98293.28;;;14.46;44.47
13124;BME280;6627;50.920;12.050;2023-04-28T02:28:03;98363.63;;;14.53;45.69
13124;BME280;6627;50.920;12.050;2023-04-28T02:30:30;98348.56;;;14.47;45.97
13124;BME280;6627;50.920;12.050;2023-04-28T02:33:00;98482.31;;;15.29;44.57
13124;BME280;6627;50.920;12.050;2023-04-28T02:35:27;98360.22;;;14.56;45.24
13124;BME280;6627;50.920;12.050;2023-04-28T02:37:55;98539.06;;;15.69;43.99
13124;BME280;6627;50.920;12.050;2023-04-28T02:40:22;98499.19;;;15.55;43.59
13124;BME280;6627;50.920;12.050;2023-04-28T02:42:49;98469.47;;;15.29;44.24
13124;BME280;6627;50.920;12.050;2023-04-28T02:45:16;98397.03;;;14.62;45.65
13124;BME280;6627;50.920;12.050;2023-04-28T02:47:43;98331.53;;;14.04;46.26
13124;BME280;6627;50.920;12.050;2023-04-28T02:50:12;98439.63;;;14.67;46.32
13124;BME280;6627;50.920;12.050;2023-04-28T02:52:39;98491.47;;;15.12;45.45
13124;BME280;6627;50.920;12.050;2023-04-28T02:55:07;98453.94;;;14.97;45.33
13124;BME280;6627;50.920;12.050;2023-04-28T02:57:34;98439.34;;;14.80;45.84
13124;BME280;6627;50.920;12.050;2023-04-28T03:00:02;98350.66;;;13.96;47.19
13124;BME280;6627;50.920;12.050;2023-04-28T03:02:30;98422.66;;;14.49;46.80
13124;BME280;6627;50.920;12.050;2023-04-28T03:04:58;98375.47;;;14.15;46.67
13124;BME280;6627;50.920;12.050;2023-04-28T03:07:26;98414.66;;;14.44;46.61
13124;BME280;6627;50.920;12.050;2023-04-28T03:09:53;98516.47;;;15.02;45.96
13124;BME280;6627;50.920;12.050;2023-04-28T03:12:20;98486.78;;;15.00;45.66
13124;BME280;6627;50.920;12.050;2023-04-28T03:14:47;98417.97;;;14.28;47.05
13124;BME280;6627;50.920;12.050;2023-04-28T03:17:15;98345.34;;;13.78;47.84
13124;BME280;6627;50.920;12.050;2023-04-28T03:19:42;98352.22;;;13.97;47.66
13124;BME280;6627;50.920;12.050;2023-04-28T03:22:10;98392.31;;;14.29;46.91
13124;BME280;6627;50.920;12.050;2023-04-28T03:24:38;98398.31;;;14.23;47.36
13124;BME280;6627;50.920;12.050;2023-04-28T03:27:05;98421.03;;;14.48;46.92
13124;BME280;6627;50.920;12.050;2023-04-28T03:29:32;98352.50;;;14.04;47.40
13124;BME280;6627;50.920;12.050;2023-04-28T03:32:01;98394.88;;;14.13;47.72
13124;BME280;6627;50.920;12.050;2023-04-28T03:34:28;98420.75;;;14.41;47.28
13124;BME280;6627;50.920;12.050;2023-04-28T03:36:55;98375.59;;;13.98;48.19
13124;BME280;6627;50.920;12.050;2023-04-28T03:39:22;98408.66;;;14.29;47.79
13124;BME280;6627;50.920;12.050;2023-04-28T03:41:51;98419.63;;;14.42;47.52
13124;BME280;6627;50.920;12.050;2023-04-28T03:44:18;98441.59;;;14.78;46.52
13124;BME280;6627;50.920;12.050;2023-04-28T03:46:45;98493.09;;;15.25;45.39
13124;BME280;6627;50.920;12.050;2023-04-28T03:49:14;98378.47;;;14.22;46.99
13124;BME280;6627;50.920;12.050;2023-04-28T03:51:41;98488.88;;;14.82;47.28
13124;BME280;6627;50.920;12.050;2023-04-28T03:54:08;98268.84;;;13.29;48.36
13124;BME280;6627;50.920;12.050;2023-04-28T03:56:36;98364.84;;;13.80;48.81
13124;BME280;6627;50.920;12.050;2023-04-28T03:59:05;98468.34;;;14.64;47.86
13124;BME280;6627;50.920;12.050;2023-04-28T04:01:32;98479.59;;;14.96;46.19
13124;BME280;6627;50.920;12.050;2023-04-28T04:03:59;98376.13;;;14.12;47.24
13124;BME280;6627;50.920;12.050;2023-04-28T04:06:26;98365.53;;;13.77;48.64
13124;BME280;6627;50.920;12.050;2023-04-28T04:08:54;98410.66;;;14.20;48.15
13124;BME280;6627;50.920;12.050;2023-04-28T04:11:22;98506.03;;;15.16;46.18
13124;BME280;6627;50.920;12.050;2023-04-28T04:13:49;98443.88;;;14.76;46.49
13124;BME280;6627;50.920;12.050;2023-04-28T04:16:17;98532.09;;;15.26;46.48
13124;BME280;6627;50.920;12.050;2023-04-28T04:18:47;98571.28;;;16.00;44.38
13124;BME280;6627;50.920;12.050;2023-04-28T04:21:14;98414.75;;;15.01;45.54
13124;BME280;6627;50.920;12.050;2023-04-28T04:23:41;98488.31;;;15.22;45.92
13124;BME280;6627;50.920;12.050;2023-04-28T04:26:08;98559.31;;;15.80;45.13
13124;BME280;6627;50.920;12.050;2023-04-28T04:28:35;98576.53;;;16.17;44.00
13124;BME280;6627;50.920;12.050;2023-04-28T04:31:02;98478.88;;;15.65;44.80
13124;BME280;6627;50.920;12.050;2023-04-28T04:33:32;98412.84;;;15.26;44.57
13124;BME280;6627;50.920;12.050;2023-04-28T04:35:59;98524.50;;;16.01;43.89
13124;BME280;6627;50.920;12.050;2023-04-28T04:38:26;98596.06;;;16.68;42.65
13124;BME280;6627;50.920;12.050;2023-04-28T04:40:53;98560.94;;;16.30;44.07
13124;BME280;6627;50.920;12.050;2023-04-28T04:43:20;98614.22;;;17.13;42.01
13124;BME280;6627;50.920;12.050;2023-04-28T04:45:48;98397.63;;;15.86;42.91
13124;BME280;6627;50.920;12.050;2023-04-28T04:48:15;98454.50;;;16.09;43.03
13124;BME280;6627;50.920;12.050;2023-04-28T04:50:44;98428.44;;;15.99;42.98
13124;BME280;6627;50.920;12.050;2023-04-28T04:53:11;98380.13;;;15.63;43.71
13124;BME280;6627;50.920;12.050;2023-04-28T04:55:39;98427.44;;;15.92;43.78
13124;BME280;6627;50.920;12.050;2023-04-28T04:58:06;98439.56;;;16.06;43.57
13124;BME280;6627;50.920;12.050;2023-04-28T05:00:34;98419.25;;;15.79;44.24
13124;BME280;6627;50.920;12.050;2023-04-28T05:03:03;98477.75;;;16.43;43.14
13124;BME280;6627;50.920;12.050;2023-04-28T05:05:31;98481.53;;;16.38;43.36
13124;BME280;6627;50.920;12.050;2023-04-28T05:08:02;98569.56;;;17.09;42.47
13124;BME280;6627;50.920;12.050;2023-04-28T05:10:30;98611.28;;;17.34;42.37
13124;BME280;6627;50.920;12.050;2023-04-28T05:12:58;98513.75;;;16.85;42.17
13124;BME280;6627;50.920;12.050;2023-04-28T05:15:25;98593.78;;;17.23;42.19
13124;BME280;6627;50.920;12.050;2023-04-28T05:17:52;98618.34;;;17.63;41.60
13124;BME280;6627;50.920;12.050;2023-04-28T05:20:19;98525.00;;;17.24;41.15
13124;BME280;6627;50.920;12.050;2023-04-28T05:22:47;98604.78;;;17.82;40.71
13124;BME280;6627;50.920;12.050;2023-04-28T05:25:16;98425.53;;;16.88;41.40
13124;BME280;6627;50.920;12.050;2023-04-28T05:27:43;98478.34;;;17.05;41.76
13124;BME280;6627;50.920;12.050;2023-04-28T05:30:11;98343.34;;;16.25;42.09
13124;BME280;6627;50.920;12.050;2023-04-28T05:32:40;98435.97;;;16.71;42.54
13124;BME280;6627;50.920;12.050;2023-04-28T05:35:08;98423.75;;;16.80;42.23
13124;BME280;6627;50.920;12.050;2023-04-28T05:37:35;98430.41;;;16.95;41.69
13124;BME280;6627;50.920;12.050;2023-04-28T05:40:05;98441.69;;;16.94;42.08
13124;BME280;6627;50.920;12.050;2023-04-28T05:42:34;98447.69;;;16.99;41.86
13124;BME280;6627;50.920;12.050;2023-04-28T05:45:01;98594.03;;;18.21;40.36
13124;BME280;6627;50.920;12.050;2023-04-28T05:47:29;98501.81;;;17.50;40.84
13124;BME280;6627;50.920;12.050;2023-04-28T05:49:56;98620.19;;;18.34;40.03
13124;BME280;6627;50.920;12.050;2023-04-28T05:52:23;98377.00;;;16.85;41.47
13124;BME280;6627;50.920;12.050;2023-04-28T05:54:52;98411.41;;;16.86;42.22
13124;BME280;6627;50.920;12.050;2023-04-28T05:57:20;98419.06;;;17.09;41.50
13124;BME280;6627;50.920;12.050;2023-04-28T05:59:49;98553.53;;;17.99;40.55
13124;BME280;6627;50.920;12.050;2023-04-28T06:02:16;98475.06;;;17.59;40.63
13124;BME280;6627;50.920;12.050;2023-04-28T06:04:43;98575.19;;;18.55;39.44
13124;BME280;6627;50.920;12.050;2023-04-28T06:07:10;98384.59;;;17.08;41.13
13124;BME280;6627;50.920;12.050;2023-04-28T06:09:57;98466.22;;;17.50;41.04
13124;BME280;6627;50.920;12.050;2023-04-28T06:12:26;98551.59;;;18.15;40.53
13124;BME280;6627;50.920;12.050;2023-04-28T06:14:54;98463.91;;;17.83;39.90
13124;BME280;6627;50.920;12.050;2023-04-28T06:17:21;98598.91;;;18.63;39.33
13124;BME280;6627;50.920;12.050;2023-04-28T06:19:50;98643.94;;;19.13;38.38
13124;BME280;6627;50.920;12.050;2023-04-28T06:22:19;98636.84;;;19.12;38.30
13124;BME280;6627;50.920;12.050;2023-04-28T06:24:46;98506.91;;;18.50;38.75
13124;BME280;6627;50.920;12.050;2023-04-28T06:27:14;98592.06;;;19.27;37.44
13124;BME280;6627;50.920;12.050;2023-04-28T06:29:41;98546.25;;;18.93;38.29
13124;BME280;6627;50.920;12.050;2023-04-28T06:32:09;98404.38;;;18.15;38.82
13124;BME280;6627;50.920;12.050;2023-04-28T06:34:36;98542.34;;;18.94;39.14
13124;BME280;6627;50.920;12.050;2023-04-28T06:37:05;98306.47;;;17.77;39.08
13124;BME280;6627;50.920;12.050;2023-04-28T06:39:32;98525.59;;;18.79;39.27
13124;BME280;6627;50.920;12.050;2023-04-28T06:41:59;98460.28;;;18.50;39.36
13124;BME280;6627;50.920;12.050;2023-04-28T06:44:27;98402.72;;;18.11;39.82
13124;BME280;6627;50.920;12.050;2023-04-28T06:46:54;98419.75;;;18.20;39.92
13124;BME280;6627;50.920;12.050;2023-04-28T06:49:22;98677.63;;;19.87;38.31
13124;BME280;6627;50.920;12.050;2023-04-28T06:51:50;98599.81;;;19.83;38.08
13124;BME280;6627;50.920;12.050;2023-04-28T06:54:17;98618.75;;;19.88;38.01
13124;BME280;6627;50.920;12.050;2023-04-28T06:56:45;98304.75;;;17.88;39.35
13124;BME280;6627;50.920;12.050;2023-04-28T06:59:12;98422.47;;;18.59;39.31
13124;BME280;6627;50.920;12.050;2023-04-28T07:01:40;98500.78;;;18.92;39.20
13124;BME280;6627;50.920;12.050;2023-04-28T07:04:07;98524.44;;;19.19;39.41
13124;BME280;6627;50.920;12.050;2023-04-28T07:06:35;98457.66;;;18.92;39.01
13124;BME280;6627;50.920;12.050;2023-04-28T07:09:03;98387.56;;;18.36;39.86
13124;BME280;6627;50.920;12.050;2023-04-28T07:11:30;98390.38;;;18.40;40.15
13124;BME280;6627;50.920;12.050;2023-04-28T07:13:58;98506.25;;;18.92;40.49
13124;BME280;6627;50.920;12.050;2023-04-28T07:16:25;98563.28;;;19.21;40.46
13124;BME280;6627;50.920;12.050;2023-04-28T07:18:52;98663.16;;;19.90;40.14
13124;BME280;6627;50.920;12.050;2023-04-28T07:21:19;98660.84;;;19.93;39.97
13124;BME280;6627;50.920;12.050;2023-04-28T07:23:48;98752.13;;;20.67;39.23
13124;BME280;6627;50.920;12.050;2023-04-28T07:26:16;98588.13;;;19.48;39.82
13124;BME280;6627;50.920;12.050;2023-04-28T07:28:43;98580.47;;;19.57;39.92
13124;BME280;6627;50.920;12.050;2023-04-28T07:31:10;98625.06;;;19.70;40.17
13124;BME280;6627;50.920;12.050;2023-04-28T07:33:38;98529.63;;;19.24;40.19
13124;BME280;6627;50.920;12.050;2023-04-28T07:36:06;98660.94;;;20.19;39.49
13124;BME280;6627;50.920;12.050;2023-04-28T07:38:34;98486.59;;;18.89;40.93
13124;BME280;6627;50.920;12.050;2023-04-28T07:41:03;98619.72;;;20.00;39.54
13124;BME280;6627;50.920;12.050;2023-04-28T07:43:30;98724.69;;;20.71;39.44
13124;BME280;6627;50.920;12.050;2023-04-28T07:45:57;98629.56;;;20.01;39.89
13124;BME280;6627;50.920;12.050;2023-04-28T07:48:24;98510.06;;;19.06;41.03
13124;BME280;6627;50.920;12.050;2023-04-28T07:50:52;98616.34;;;19.64;41.43
13124;BME280;6627;50.920;12.050;2023-04-28T07:53:19;98536.66;;;19.22;41.36
13124;BME280;6627;50.920;12.050;2023-04-28T07:55:46;98520.81;;;19.15;41.71
13124;BME280;6627;50.920;12.050;2023-04-28T07:58:16;98648.53;;;20.06;40.68
13124;BME280;6627;50.920;12.050;2023-04-28T08:00:43;98602.28;;;19.69;40.49
13124;BME280;6627;50.920;12.050;2023-04-28T08:03:10;98703.38;;;20.45;40.33
13124;BME280;6627;50.920;12.050;2023-04-28T08:05:38;98637.16;;;20.07;39.88
13124;BME280;6627;50.920;12.050;2023-04-28T08:08:06;98678.31;;;20.27;40.42
13124;BME280;6627;50.920;12.050;2023-04-28T08:10:33;98687.25;;;20.43;39.99
13124;BME280;6627;50.920;12.050;2023-04-28T08:13:00;98563.47;;;19.51;40.57
13124;BME280;6627;50.920;12.050;2023-04-28T08:15:30;98605.47;;;19.71;41.25
13124;BME280;6627;50.920;12.050;2023-04-28T08:17:57;98650.28;;;19.95;40.85
13124;BME280;6627;50.920;12.050;2023-04-28T08:20:24;98532.06;;;19.29;40.63
13124;BME280;6627;50.920;12.050;2023-04-28T08:22:52;98559.22;;;19.54;40.03
13124;BME280;6627;50.920;12.050;2023-04-28T08:25:20;98612.94;;;19.94;40.29
13124;BME280;6627;50.920;12.050;2023-04-28T08:27:47;98601.81;;;19.86;40.22
13124;BME280;6627;50.920;12.050;2023-04-28T08:30:15;98643.97;;;20.17;39.69
13124;BME280;6627;50.920;12.050;2023-04-28T08:32:44;98563.13;;;19.53;40.31
13124;BME280;6627;50.920;12.050;2023-04-28T08:35:11;98722.09;;;20.55;40.33
13124;BME280;6627;50.920;12.050;2023-04-28T08:37:40;98664.00;;;20.40;39.56
13124;BME280;6627;50.920;12.050;2023-04-28T08:40:09;98848.34;;;21.78;38.93
13124;BME280;6627;50.920;12.050;2023-04-28T08:42:36;98803.69;;;21.69;38.63
13124;BME280;6627;50.920;12.050;2023-04-28T08:45:05;98708.38;;;21.11;39.01
13124;BME280;6627;50.920;12.050;2023-04-28T08:47:35;98621.81;;;20.29;40.78
13124;BME280;6627;50.920;12.050;2023-04-28T08:50:06;98743.91;;;20.94;41.06
13124;BME280;6627;50.920;12.050;2023-04-28T08:52:35;98787.03;;;21.32;40.47
13124;BME280;6627;50.920;12.050;2023-04-28T08:55:07;98768.44;;;21.29;40.18
13124;BME280;6627;50.920;12.050;2023-04-28T08:57:42;98789.94;;;21.20;41.13
13124;BME280;6627;50.920;12.050;2023-04-28T09:00:11;98672.50;;;20.51;41.29
13124;BME280;6627;50.920;12.050;2023-04-28T09:02:38;98791.00;;;21.34;41.19
13124;BME280;6627;50.920;12.050;2023-04-28T09:05:09;98864.75;;;21.71;41.04
13124;BME280;6627;50.920;12.050;2023-04-28T09:07:36;98784.75;;;21.14;41.68
13124;BME280;6627;50.920;12.050;2023-04-28T09:10:16;98725.72;;;20.85;42.16
13124;BME280;6627;50.920;12.050;2023-04-28T09:12:45;98726.81;;;20.58;43.29
13124;BME280;6627;50.920;12.050;2023-04-28T09:15:31;98670.78;;;20.01;44.87
13124;BME280;6627;50.920;12.050;2023-04-28T09:18:00;98711.03;;;19.89;46.31
13124;BME280;6627;50.920;12.050;2023-04-28T09:20:31;98840.97;;;20.25;46.79
13124;BME280;6627;50.920;12.050;2023-04-28T09:23:15;98839.81;;;20.46;45.91
13124;BME280;6627;50.920;12.050;2023-04-28T09:25:57;98799.72;;;19.67;48.34
13124;BME280;6627;50.920;12.050;2023-04-28T09:28:26;98897.00;;;20.36;48.05
13124;BME280;6627;50.920;12.050;2023-04-28T09:30:53;98984.44;;;21.24;46.04
13124;BME280;6627;50.920;12.050;2023-04-28T09:33:21;98966.19;;;21.16;46.83
13124;BME280;6627;50.920;12.050;2023-04-28T09:35:50;98776.84;;;19.82;47.36
13124;BME280;6627;50.920;12.050;2023-04-28T09:38:21;98848.34;;;20.40;47.29
13124;BME280;6627;50.920;12.050;2023-04-28T09:40:54;98908.34;;;21.16;45.61
13124;BME280;6627;50.920;12.050;2023-04-28T09:43:26;98856.25;;;20.84;45.16
13124;BME280;6627;50.920;12.050;2023-04-28T09:46:00;98723.34;;;19.76;47.42
13124;BME280;6627;50.920;12.050;2023-04-28T09:48:30;98760.59;;;19.74;48.46
13124;BME280;6627;50.920;12.050;2023-04-28T09:51:01;98683.97;;;19.14;48.84
13124;BME280;6627;50.920;12.050;2023-04-28T09:53:29;98777.31;;;19.84;48.32
13124;BME280;6627;50.920;12.050;2023-04-28T09:56:00;98898.63;;;20.99;46.53
13124;BME280;6627;50.920;12.050;2023-04-28T09:58:29;98988.56;;;21.80;44.98
13124;BME280;6627;50.920;12.050;2023-04-28T10:00:59;98670.66;;;19.16;48.78
13124;BME280;6627;50.920;12.050;2023-04-28T10:03:29;98737.97;;;19.80;47.46
13124;BME280;6627;50.920;12.050;2023-04-28T10:06:00;98666.91;;;19.24;47.81
13124;BME280;6627;50.920;12.050;2023-04-28T10:08:29;98726.41;;;19.55;48.30
13124;BME280;6627;50.920;12.050;2023-04-28T10:10:57;98761.69;;;19.88;47.36
13124;BME280;6627;50.920;12.050;2023-04-28T10:13:26;98789.03;;;19.81;49.36
13124;BME280;6627;50.920;12.050;2023-04-28T10:15:54;98643.91;;;18.94;48.56
13124;BME280;6627;50.920;12.050;2023-04-28T10:18:24;98679.88;;;19.08;49.39
13124;BME280;6627;50.920;12.050;2023-04-28T10:20:56;98681.09;;;18.91;50.22
13124;BME280;6627;50.920;12.050;2023-04-28T10:24:02;98720.06;;;19.51;48.42
13124;BME280;6627;50.920;12.050;2023-04-28T10:27:05;98719.88;;;19.79;47.09
13124;BME280;6627;50.920;12.050;2023-04-28T10:29:35;98641.56;;;18.76;49.28
13124;BME280;6627;50.920;12.050;2023-04-28T10:32:21;98699.09;;;19.43;48.10
13124;BME280;6627;50.920;12.050;2023-04-28T10:38:02;98790.19;;;20.00;47.51
13124;BME280;6627;50.920;12.050;2023-04-28T10:40:33;98747.22;;;19.72;48.83
13124;BME280;6627;50.920;12.050;2023-04-28T10:43:02;98779.19;;;20.00;48.89
13124;BME280;6627;50.920;12.050;2023-04-28T10:46:00;98633.09;;;19.20;48.27
13124;BME280;6627;50.920;12.050;2023-04-28T10:48:57;98751.25;;;19.78;48.70
13124;BME280;6627;50.920;12.050;2023-04-28T10:51:29;98763.81;;;20.18;47.56
13124;BME280;6627;50.920;12.050;2023-04-28T10:54:18;98869.22;;;21.07;47.16
13124;BME280;6627;50.920;12.050;2023-04-28T10:57:19;98899.22;;;21.58;45.94
13124;BME280;6627;50.920;12.050;2023-04-28T10:59:48;98525.59;;;18.79;47.77
13124;BME280;6627;50.920;12.050;2023-04-28T11:02:41;98869.97;;;21.04;47.51
13124;BME280;6627;50.920;12.050;2023-04-28T11:05:18;98693.03;;;19.53;49.81
13124;BME280;6627;50.920;12.050;2023-04-28T11:08:30;98780.84;;;20.66;47.10
13124;BME280;6627;50.920;12.050;2023-04-28T11:11:12;98758.72;;;20.39;47.69
13124;BME280;6627;50.920;12.050;2023-04-28T11:13:43;98805.41;;;20.55;48.06
13124;BME280;6627;50.920;12.050;2023-04-28T11:16:14;98811.97;;;20.70;47.87
13124;BME280;6627;50.920;12.050;2023-04-28T11:18:58;98745.69;;;20.56;47.33
13124;BME280;6627;50.920;12.050;2023-04-28T11:21:30;98867.28;;;21.30;47.04
13124;BME280;6627;50.920;12.050;2023-04-28T11:23:58;98752.66;;;20.30;48.28
13124;BME280;6627;50.920;12.050;2023-04-28T11:26:27;98883.53;;;21.16;47.78
13124;BME280;6627;50.920;12.050;2023-04-28T11:28:56;98677.28;;;20.35;46.89
13124;BME280;6627;50.920;12.050;2023-04-28T11:31:26;98837.22;;;21.45;46.03
13124;BME280;6627;50.920;12.050;2023-04-28T11:34:00;98700.91;;;20.59;46.65
13124;BME280;6627;50.920;12.050;2023-04-28T11:36:33;98708.09;;;20.67;46.38
13124;BME280;6627;50.920;12.050;2023-04-28T11:39:02;98853.00;;;21.74;45.16
13124;BME280;6627;50.920;12.050;2023-04-28T11:41:32;98738.53;;;21.01;46.31
13124;BME280;6627;50.920;12.050;2023-04-28T11:44:09;98669.28;;;20.72;45.64
13124;BME280;6627;50.920;12.050;2023-04-28T11:46:44;98552.66;;;19.81;47.19
13124;BME280;6627;50.920;12.050;2023-04-28T11:49:16;98874.53;;;22.22;45.02
13124;BME280;6627;50.920;12.050;2023-04-28T11:51:43;98618.44;;;20.66;45.68
13124;BME280;6627;50.920;12.050;2023-04-28T11:54:13;98612.03;;;20.09;47.49
13124;BME280;6627;50.920;12.050;2023-04-28T11:56:41;98542.75;;;19.34;48.63
13124;BME280;6627;50.920;12.050;2023-04-28T11:59:12;98634.22;;;20.20;47.38
13124;BME280;6627;50.920;12.050;2023-04-28T12:01:48;98721.78;;;20.86;46.91
13124;BME280;6627;50.920;12.050;2023-04-28T12:04:30;98707.97;;;21.09;45.27
13124;BME280;6627;50.920;12.050;2023-04-28T12:07:03;98501.22;;;19.36;47.34
13124;BME280;6627;50.920;12.050;2023-04-28T12:09:32;98685.41;;;20.74;46.32
13124;BME280;6627;50.920;12.050;2023-04-28T12:12:02;98848.34;;;21.78;45.95
13124;BME280;6627;50.920;12.050;2023-04-28T12:14:32;98786.84;;;21.74;44.70
13124;BME280;6627;50.920;12.050;2023-04-28T12:17:23;98521.69;;;19.84;46.35
13124;BME280;6627;50.920;12.050;2023-04-28T12:19:51;98705.34;;;21.16;45.08
13124;BME280;6627;50.920;12.050;2023-04-28T12:22:18;98646.50;;;20.49;46.25
13124;BME280;6627;50.920;12.050;2023-04-28T12:24:46;98738.06;;;21.22;45.68
13124;BME280;6627;50.920;12.050;2023-04-28T12:27:28;98710.69;;;21.32;44.47
13124;BME280;6627;50.920;12.050;2023-04-28T12:29:57;98726.25;;;21.21;45.26
13124;BME280;6627;50.920;12.050;2023-04-28T12:32:37;98655.59;;;20.79;45.45
13124;BME280;6627;50.920;12.050;2023-04-28T12:35:06;98533.50;;;19.62;47.28
13124;BME280;6627;50.920;12.050;2023-04-28T12:37:34;98660.31;;;20.52;46.92
13124;BME280;6627;50.920;12.050;2023-04-28T12:40:04;98665.63;;;20.64;46.95
13124;BME280;6627;50.920;12.050;2023-04-28T12:42:34;98781.97;;;21.64;45.27
13124;BME280;6627;50.920;12.050;2023-04-28T12:45:04;98839.31;;;22.11;44.77
13124;BME280;6627;50.920;12.050;2023-04-28T12:47:33;98730.19;;;21.80;44.24
13124;BME280;6627;50.920;12.050;2023-04-28T12:50:00;98793.69;;;22.17;44.41
13124;BME280;6627;50.920;12.050;2023-04-28T12:52:27;98815.44;;;22.60;43.41
13124;BME280;6627;50.920;12.050;2023-04-28T12:54:56;98731.19;;;21.99;44.16
13124;BME280;6627;50.920;12.050;2023-04-28T12:57:23;98752.06;;;22.33;43.38
13124;BME280;6627;50.920;12.050;2023-04-28T12:59:51;98541.41;;;20.66;45.66
13124;BME280;6627;50.920;12.050;2023-04-28T13:02:20;98651.06;;;21.51;44.69
13124;BME280;6627;50.920;12.050;2023-04-28T13:04:47;98754.09;;;22.03;45.53
13124;BME280;6627;50.920;12.050;2023-04-28T13:07:17;98721.19;;;22.21;44.46
13124;BME280;6627;50.920;12.050;2023-04-28T13:09:45;98717.03;;;22.04;44.85
13124;BME280;6627;50.920;12.050;2023-04-28T13:12:12;98639.66;;;21.49;44.90
13124;BME280;6627;50.920;12.050;2023-04-28T13:14:40;98769.53;;;22.45;44.62
13124;BME280;6627;50.920;12.050;2023-04-28T13:17:07;98731.03;;;22.18;44.89